sensor_id;sensor_type;location;lat;lon;timestamp;pressure;altitude;pressure_sealevel;temperature;humidity
68197;BME280;55019;49.382;11.358;2024-01-30T00:00:02;98018.75;;;0.88;100.00
68197;BME280;55019;49.382;11.358;2024-01-30T00:02:31;98028.03;;;0.89;100.00
68197;BME280;55019;49.382;11.358;2024-01-30T00:04:57;98017.97;;;0.86;100.00
68197;BME280;55019;49.382;11.358;2024-01-30T00:07:23;98029.31;;;0.98;100.00
68197;BME280;55019;49.382;11.358;2024-01-30T00:09:48;98026.28;;;0.90;100.00
68197;BME280;55019;49.382;11.358;2024-01-30T00:12:14;98028.06;;;0.88;100.00
68197;BME280;55019;49.382;11.358;2024-01-30T00:14:43;98031.59;;;0.85;100.00
68197;BME280;55019;49.382;11.358;2024-01-30T00:17:09;98038.66;;;0.79;100.00
68197;BME280;55019;49.382;11.358;2024-01-30T00:19:35;98042.81;;;0.81;100.00
68197;BME280;55019;49.382;11.358;2024-01-30T00:22:00;98038.53;;;0.82;100.00
68197;BME280;55019;49.382;11.358;2024-01-30T00:24:26;98052.44;;;0.75;100.00
68197;BME280;55019;49.382;11.358;2024-01-30T00:26:52;98034.28;;;0.64;100.00
68197;BME280;55019;49.382;11.358;2024-01-30T00:29:17;98045.13;;;0.67;100.00
68197;BME280;55019;49.382;11.358;2024-01-30T00:31:52;98038.66;;;0.60;100.00
68197;BME280;55019;49.382;11.358;2024-01-30T00:34:18;98033.09;;;0.52;100.00
68197;BME280;55019;49.382;11.358;2024-01-30T00:36:46;98050.34;;;0.64;100.00
68197;BME280;55019;49.382;11.358;2024-01-30T00:39:12;98040.44;;;0.58;100.00
68197;BME280;55019;49.382;11.358;2024-01-30T00:41:38;98041.66;;;0.50;100.00
68197;BME280;55019;49.382;11.358;2024-01-30T00:44:04;98041.75;;;0.48;100.00
68197;BME280;55019;49.382;11.358;2024-01-30T00:46:29;98041.25;;;0.40;100.00
68197;BME280;55019;49.382;11.358;2024-01-30T00:48:55;98035.47;;;0.37;100.00
68197;BME280;55019;49.382;11.358;2024-01-30T00:51:21;98035.34;;;0.40;100.00
68197;BME280;55019;49.382;11.358;2024-01-30T00:53:46;98036.56;;;0.50;100.00
68197;BME280;55019;49.382;11.358;2024-01-30T00:56:12;98040.59;;;0.55;100.00
68197;BME280;55019;49.382;11.358;2024-01-30T00:58:38;98035.44;;;0.57;100.00
68197;BME280;55019;49.382;11.358;2024-01-30T01:01:04;98039.78;;;0.55;100.00
68197;BME280;55019;49.382;11.358;2024-01-30T01:03:30;98029.72;;;0.52;100.00
68197;BME280;55019;49.382;11.358;2024-01-30T01:06:01;98033.03;;;0.54;100.00
68197;BME280;55019;49.382;11.358;2024-01-30T01:08:27;98022.97;;;0.51;100.00
68197;BME280;55019;49.382;11.358;2024-01-30T01:10:53;98024.66;;;0.52;100.00
68197;BME280;55019;49.382;11.358;2024-01-30T01:13:19;98022.72;;;0.57;100.00
68197;BME280;55019;49.382;11.358;2024-01-30T01:15:45;98030.53;;;0.52;100.00
68197;BME280;55019;49.382;11.358;2024-01-30T01:18:19;98029.59;;;0.55;100.00
68197;BME280;55019;49.382;11.358;2024-01-30T01:20:45;98021.53;;;0.45;100.00
68197;BME280;55019;49.382;11.358;2024-01-30T01:23:10;98024.88;;;0.46;100.00
68197;BME280;55019;49.382;11.358;2024-01-30T01:25:36;98026.00;;;0.40;100.00
68197;BME280;55019;49.382;11.358;2024-01-30T01:28:02;98012.53;;;0.38;100.00
68197;BME280;55019;49.382;11.358;2024-01-30T01:30:31;98025.91;;;0.42;100.00
68197;BME280;55019;49.382;11.358;2024-01-30T01:32:56;98015.53;;;0.28;100.00
68197;BME280;55019;49.382;11.358;2024-01-30T01:35:25;98000.09;;;0.12;100.00
68197;BME280;55019;49.382;11.358;2024-01-30T01:37:52;98011.91;;;0.33;100.00
68197;BME280;55019;49.382;11.358;2024-01-30T01:40:25;98003.84;;;0.24;100.00
68197;BME280;55019;49.382;11.358;2024-01-30T01:42:52;98018.84;;;0.30;100.00
68197;BME280;55019;49.382;11.358;2024-01-30T01:45:26;98016.25;;;0.31;100.00
68197;BME280;55019;49.382;11.358;2024-01-30T01:47:52;98024.50;;;0.36;100.00
68197;BME280;55019;49.382;11.358;2024-01-30T01:50:19;98003.00;;;0.23;100.00
68197;BME280;55019;49.382;11.358;2024-01-30T01:52:50;98022.69;;;0.38;100.00
68197;BME280;55019;49.382;11.358;2024-01-30T01:55:17;98013.63;;;0.33;100.00
68197;BME280;55019;49.382;11.358;2024-01-30T01:57:44;98016.03;;;0.36;100.00
68197;BME280;55019;49.382;11.358;2024-01-30T02:00:10;98017.25;;;0.27;100.00
68197;BME280;55019;49.382;11.358;2024-01-30T02:02:38;98019.53;;;0.33;100.00
68197;BME280;55019;49.382;11.358;2024-01-30T02:05:05;97995.91;;;0.11;100.00
68197;BME280;55019;49.382;11.358;2024-01-30T02:07:31;97994.00;;;0.16;100.00
68197;BME280;55019;49.382;11.358;2024-01-30T02:09:57;98009.56;;;0.29;100.00
68197;BME280;55019;49.382;11.358;2024-01-30T02:12:22;97992.84;;;0.23;100.00
68197;BME280;55019;49.382;11.358;2024-01-30T02:14:48;98010.03;;;0.37;100.00
68197;BME280;55019;49.382;11.358;2024-01-30T02:17:18;98012.53;;;0.38;100.00
68197;BME280;55019;49.382;11.358;2024-01-30T02:19:44;98010.75;;;0.40;100.00
68197;BME280;55019;49.382;11.358;2024-01-30T02:22:12;97991.72;;;0.30;100.00
68197;BME280;55019;49.382;11.358;2024-01-30T02:24:39;97996.72;;;0.32;100.00
68197;BME280;55019;49.382;11.358;2024-01-30T02:27:04;98005.38;;;0.28;100.00
68197;BME280;55019;49.382;11.358;2024-01-30T02:29:30;98004.31;;;0.13;100.00
68197;BME280;55019;49.382;11.358;2024-01-30T02:32:02;97990.28;;;0.05;100.00
68197;BME280;55019;49.382;11.358;2024-01-30T02:34:28;97998.31;;;0.14;100.00
68197;BME280;55019;49.382;11.358;2024-01-30T02:36:54;98001.31;;;0.24;100.00
68197;BME280;55019;49.382;11.358;2024-01-30T02:39:19;97996.94;;;0.27;100.00
68197;BME280;55019;49.382;11.358;2024-01-30T02:41:45;97998.81;;;0.22;100.00
68197;BME280;55019;49.382;11.358;2024-01-30T02:44:11;97991.28;;;0.21;100.00
68197;BME280;55019;49.382;11.358;2024-01-30T02:46:37;97998.78;;;0.42;100.00
68197;BME280;55019;49.382;11.358;2024-01-30T02:49:02;97978.44;;;0.42;100.00
68197;BME280;55019;49.382;11.358;2024-01-30T02:51:28;97982.03;;;0.38;100.00
68197;BME280;55019;49.382;11.358;2024-01-30T02:53:54;97984.91;;;0.49;100.00
68197;BME280;55019;49.382;11.358;2024-01-30T02:56:20;97983.72;;;0.38;100.00
68197;BME280;55019;49.382;11.358;2024-01-30T02:58:45;97973.66;;;0.36;100.00
68197;BME280;55019;49.382;11.358;2024-01-30T03:01:11;97979.94;;;0.28;100.00
68197;BME280;55019;49.382;11.358;2024-01-30T03:03:37;97964.56;;;0.31;100.00
68197;BME280;55019;49.382;11.358;2024-01-30T03:06:03;97968.56;;;0.36;100.00
68197;BME280;55019;49.382;11.358;2024-01-30T03:08:28;97968.56;;;0.36;100.00
68197;BME280;55019;49.382;11.358;2024-01-30T03:10:54;97961.69;;;0.38;100.00
68197;BME280;55019;49.382;11.358;2024-01-30T03:13:21;97962.72;;;0.34;100.00
68197;BME280;55019;49.382;11.358;2024-01-30T03:15:47;97951.22;;;0.26;100.00
68197;BME280;55019;49.382;11.358;2024-01-30T03:18:13;97938.97;;;0.15;100.00
68197;BME280;55019;49.382;11.358;2024-01-30T03:20:38;97937.75;;;0.24;100.00
68197;BME280;55019;49.382;11.358;2024-01-30T03:23:07;97925.53;;;0.13;100.00
68197;BME280;55019;49.382;11.358;2024-01-30T03:25:35;97939.31;;;-0.10;100.00
68197;BME280;55019;49.382;11.358;2024-01-30T03:28:01;97952.13;;;-0.13;100.00
68197;BME280;55019;49.382;11.358;2024-01-30T03:30:29;97956.06;;;-0.06;100.00
68197;BME280;55019;49.382;11.358;2024-01-30T03:32:55;97950.75;;;-0.02;100.00
68197;BME280;55019;49.382;11.358;2024-01-30T03:35:24;97936.84;;;0.06;100.00
68197;BME280;55019;49.382;11.358;2024-01-30T03:37:50;97954.50;;;0.09;100.00
68197;BME280;55019;49.382;11.358;2024-01-30T03:40:15;97959.44;;;0.12;100.00
68197;BME280;55019;49.382;11.358;2024-01-30T03:42:41;97944.47;;;0.06;100.00
68197;BME280;55019;49.382;11.358;2024-01-30T03:45:07;97935.06;;;0.08;100.00
68197;BME280;55019;49.382;11.358;2024-01-30T03:47:33;97933.75;;;0.18;100.00
68197;BME280;55019;49.382;11.358;2024-01-30T03:49:59;97926.97;;;0.00;100.00
68197;BME280;55019;49.382;11.358;2024-01-30T03:52:25;97948.63;;;0.27;100.00
68197;BME280;55019;49.382;11.358;2024-01-30T03:54:50;97945.53;;;0.39;100.00
68197;BME280;55019;49.382;11.358;2024-01-30T03:57:16;97939.84;;;0.34;100.00
68197;BME280;55019;49.382;11.358;2024-01-30T03:59:42;97931.19;;;0.38;100.00
68197;BME280;55019;49.382;11.358;2024-01-30T04:02:10;97951.00;;;0.49;100.00
68197;BME280;55019;49.382;11.358;2024-01-30T04:04:45;97939.69;;;0.37;100.00
68197;BME280;55019;49.382;11.358;2024-01-30T04:07:11;97936.88;;;0.43;100.00
68197;BME280;55019;49.382;11.358;2024-01-30T04:09:38;97954.97;;;0.56;100.00
68197;BME280;55019;49.382;11.358;2024-01-30T04:12:04;97947.81;;;0.45;100.00
68197;BME280;55019;49.382;11.358;2024-01-30T04:14:30;97959.47;;;0.49;100.00
68197;BME280;55019;49.382;11.358;2024-01-30T04:16:55;97946.00;;;0.47;100.00
68197;BME280;55019;49.382;11.358;2024-01-30T04:19:21;97951.56;;;0.55;100.00
68197;BME280;55019;49.382;11.358;2024-01-30T04:21:47;97955.75;;;0.56;100.00
68197;BME280;55019;49.382;11.358;2024-01-30T04:24:13;97964.16;;;0.58;100.00
68197;BME280;55019;49.382;11.358;2024-01-30T04:26:38;97955.34;;;0.47;100.00
68197;BME280;55019;49.382;11.358;2024-01-30T04:29:04;97951.38;;;0.41;100.00
68197;BME280;55019;49.382;11.358;2024-01-30T04:31:30;97967.72;;;0.36;100.00
68197;BME280;55019;49.382;11.358;2024-01-30T04:33:56;97958.81;;;0.27;100.00
68197;BME280;55019;49.382;11.358;2024-01-30T04:36:21;97937.91;;;0.21;100.00
68197;BME280;55019;49.382;11.358;2024-01-30T04:38:47;97936.38;;;0.17;100.00
68197;BME280;55019;49.382;11.358;2024-01-30T04:41:13;97952.16;;;0.23;100.00
68197;BME280;55019;49.382;11.358;2024-01-30T04:43:39;97957.66;;;0.14;100.00
68197;BME280;55019;49.382;11.358;2024-01-30T04:46:04;97963.63;;;0.13;100.00
68197;BME280;55019;49.382;11.358;2024-01-30T04:48:34;97956.16;;;0.10;100.00
68197;BME280;55019;49.382;11.358;2024-01-30T04:50:59;97965.28;;;0.14;100.00
68197;BME280;55019;49.382;11.358;2024-01-30T04:53:30;97967.69;;;0.17;100.00
68197;BME280;55019;49.382;11.358;2024-01-30T04:55:56;97963.63;;;0.13;100.00
68197;BME280;55019;49.382;11.358;2024-01-30T04:58:22;97971.69;;;0.23;100.00
68197;BME280;55019;49.382;11.358;2024-01-30T05:00:48;97958.16;;;0.04;100.00
68197;BME280;55019;49.382;11.358;2024-01-30T05:03:18;97983.16;;;0.13;100.00
68197;BME280;55019;49.382;11.358;2024-01-30T05:05:44;97977.28;;;-0.07;100.00
68197;BME280;55019;49.382;11.358;2024-01-30T05:08:10;97979.81;;;-0.07;100.00
68197;BME280;55019;49.382;11.358;2024-01-30T05:10:35;97972.88;;;-0.04;100.00
68197;BME280;55019;49.382;11.358;2024-01-30T05:13:01;97984.38;;;0.04;100.00
68197;BME280;55019;49.382;11.358;2024-01-30T05:15:27;97988.16;;;0.14;100.00
68197;BME280;55019;49.382;11.358;2024-01-30T05:17:52;97982.59;;;0.06;100.00
68197;BME280;55019;49.382;11.358;2024-01-30T05:20:19;97979.78;;;0.12;100.00
68197;BME280;55019;49.382;11.358;2024-01-30T05:22:45;97983.47;;;0.05;100.00
68197;BME280;55019;49.382;11.358;2024-01-30T05:25:12;97983.06;;;0.14;100.00
68197;BME280;55019;49.382;11.358;2024-01-30T05:27:38;97983.06;;;0.14;100.00
68197;BME280;55019;49.382;11.358;2024-01-30T05:30:06;97982.41;;;0.11;100.00
68197;BME280;55019;49.382;11.358;2024-01-30T05:32:32;97978.13;;;0.11;100.00
68197;BME280;55019;49.382;11.358;2024-01-30T05:34:58;97987.53;;;0.09;100.00
68197;BME280;55019;49.382;11.358;2024-01-30T05:37:23;97989.13;;;0.12;100.00
68197;BME280;55019;49.382;11.358;2024-01-30T05:39:49;97993.66;;;0.05;100.00
68197;BME280;55019;49.382;11.358;2024-01-30T05:42:15;97989.94;;;0.12;100.00
68197;BME280;55019;49.382;11.358;2024-01-30T05:44:42;97982.53;;;0.08;100.00
68197;BME280;55019;49.382;11.358;2024-01-30T05:47:08;98006.44;;;0.22;100.00
68197;BME280;55019;49.382;11.358;2024-01-30T05:49:34;97984.31;;;0.06;100.00
68197;BME280;55019;49.382;11.358;2024-01-30T05:52:02;97992.53;;;-0.07;100.00
68197;BME280;55019;49.382;11.358;2024-01-30T05:54:28;97999.00;;;-0.01;100.00
68197;BME280;55019;49.382;11.358;2024-01-30T05:56:54;97982.88;;;-0.19;100.00
68197;BME280;55019;49.382;11.358;2024-01-30T05:59:20;97992.38;;;-0.04;100.00
68197;BME280;55019;49.382;11.358;2024-01-30T06:01:47;97984.19;;;-0.11;100.00
68197;BME280;55019;49.382;11.358;2024-01-30T06:04:13;97990.28;;;-0.15;100.00
68197;BME280;55019;49.382;11.358;2024-01-30T06:06:39;97987.06;;;-0.18;100.00
68197;BME280;55019;49.382;11.358;2024-01-30T06:09:05;97981.22;;;-0.20;100.00
68197;BME280;55019;49.382;11.358;2024-01-30T06:11:31;97985.56;;;-0.22;100.00
68197;BME280;55019;49.382;11.358;2024-01-30T06:13:57;97974.09;;;-0.32;100.00
68197;BME280;55019;49.382;11.358;2024-01-30T06:16:23;97984.59;;;-0.20;100.00
68197;BME280;55019;49.382;11.358;2024-01-30T06:18:49;97983.25;;;-0.28;100.00
68197;BME280;55019;49.382;11.358;2024-01-30T06:21:15;97991.69;;;-0.28;100.00
68197;BME280;55019;49.382;11.358;2024-01-30T06:23:41;97997.53;;;-0.26;100.00
68197;BME280;55019;49.382;11.358;2024-01-30T06:26:07;97996.59;;;-0.23;100.00
68197;BME280;55019;49.382;11.358;2024-01-30T06:28:34;98006.63;;;-0.20;100.00
68197;BME280;55019;49.382;11.358;2024-01-30T06:31:01;98009.81;;;-0.15;100.00
68197;BME280;55019;49.382;11.358;2024-01-30T06:33:27;98000.78;;;-0.22;100.00
68197;BME280;55019;49.382;11.358;2024-01-30T06:35:52;98005.63;;;-0.16;100.00
68197;BME280;55019;49.382;11.358;2024-01-30T06:38:18;98007.91;;;-0.10;100.00
68197;BME280;55019;49.382;11.358;2024-01-30T06:40:44;98003.69;;;-0.11;100.00
68197;BME280;55019;49.382;11.358;2024-01-30T06:43:09;98010.75;;;-0.18;100.00
68197;BME280;55019;49.382;11.358;2024-01-30T06:45:35;98002.19;;;-0.15;100.00
68197;BME280;55019;49.382;11.358;2024-01-30T06:48:01;97996.72;;;-0.06;100.00
68197;BME280;55019;49.382;11.358;2024-01-30T06:50:27;98006.28;;;0.07;100.00
68197;BME280;55019;49.382;11.358;2024-01-30T06:52:52;98008.63;;;0.11;100.00
68197;BME280;55019;49.382;11.358;2024-01-30T06:55:18;98006.28;;;0.07;100.00
68197;BME280;55019;49.382;11.358;2024-01-30T06:57:44;98005.06;;;0.15;100.00
68197;BME280;55019;49.382;11.358;2024-01-30T07:00:10;98003.28;;;0.17;100.00
68197;BME280;55019;49.382;11.358;2024-01-30T07:02:36;98008.09;;;0.23;100.00
68197;BME280;55019;49.382;11.358;2024-01-30T07:05:02;98010.44;;;0.28;100.00
68197;BME280;55019;49.382;11.358;2024-01-30T07:07:29;98013.63;;;0.33;100.00
68197;BME280;55019;49.382;11.358;2024-01-30T07:09:54;98016.72;;;0.39;100.00
68197;BME280;55019;49.382;11.358;2024-01-30T07:12:23;98021.88;;;0.38;100.00
68197;BME280;55019;49.382;11.358;2024-01-30T07:14:51;98019.63;;;0.50;100.00
68197;BME280;55019;49.382;11.358;2024-01-30T07:17:17;98014.81;;;0.63;100.00
68197;BME280;55019;49.382;11.358;2024-01-30T07:19:43;98002.16;;;0.61;100.00
68197;BME280;55019;49.382;11.358;2024-01-30T07:22:09;98015.97;;;0.74;100.00
68197;BME280;55019;49.382;11.358;2024-01-30T07:24:35;98022.31;;;0.84;100.00
68197;BME280;55019;49.382;11.358;2024-01-30T07:27:00;98020.38;;;0.89;100.00
68197;BME280;55019;49.382;11.358;2024-01-30T07:29:26;98026.22;;;0.91;100.00
68197;BME280;55019;49.382;11.358;2024-01-30T07:31:52;98023.41;;;0.97;100.00
68197;BME280;55019;49.382;11.358;2024-01-30T07:34:18;98036.91;;;1.16;100.00
68197;BME280;55019;49.382;11.358;2024-01-30T07:36:43;98027.19;;;1.24;100.00
68197;BME280;55019;49.382;11.358;2024-01-30T07:39:09;98033.94;;;1.25;100.00
68197;BME280;55019;49.382;11.358;2024-01-30T07:41:35;98019.81;;;1.37;100.00
68197;BME280;55019;49.382;11.358;2024-01-30T07:44:02;98032.19;;;1.44;100.00
68197;BME280;55019;49.382;11.358;2024-01-30T07:46:28;98027.56;;;1.52;100.00
68197;BME280;55019;49.382;11.358;2024-01-30T07:48:54;98024.97;;;1.53;100.00
68197;BME280;55019;49.382;11.358;2024-01-30T07:51:21;98030.44;;;1.80;100.00
68197;BME280;55019;49.382;11.358;2024-01-30T07:53:47;98022.94;;;1.94;100.00
68197;BME280;55019;49.382;11.358;2024-01-30T07:56:12;98027.78;;;2.15;100.00
68197;BME280;55019;49.382;11.358;2024-01-30T07:58:39;98037.38;;;2.75;100.00
68197;BME280;55019;49.382;11.358;2024-01-30T08:01:04;98035.22;;;3.45;100.00
68197;BME280;55019;49.382;11.358;2024-01-30T08:03:30;98040.03;;;4.10;100.00
68197;BME280;55019;49.382;11.358;2024-01-30T08:05:56;98038.66;;;4.32;100.00
68197;BME280;55019;49.382;11.358;2024-01-30T08:08:21;98040.16;;;4.64;100.00
68197;BME280;55019;49.382;11.358;2024-01-30T08:10:47;98036.13;;;4.60;100.00
68197;BME280;55019;49.382;11.358;2024-01-30T08:13:14;98035.97;;;4.49;100.00
68197;BME280;55019;49.382;11.358;2024-01-30T08:15:40;98034.88;;;4.53;100.00
68197;BME280;55019;49.382;11.358;2024-01-30T08:18:06;98032.84;;;4.86;100.00
68197;BME280;55019;49.382;11.358;2024-01-30T08:20:33;98030.69;;;5.47;100.00
68197;BME280;55019;49.382;11.358;2024-01-30T08:22:59;98036.81;;;5.97;100.00
68197;BME280;55019;49.382;11.358;2024-01-30T08:25:26;98042.41;;;6.41;100.00
68197;BME280;55019;49.382;11.358;2024-01-30T08:27:51;98037.06;;;6.56;100.00
68197;BME280;55019;49.382;11.358;2024-01-30T08:30:19;98024.72;;;7.09;97.00
68197;BME280;55019;49.382;11.358;2024-01-30T08:32:44;98028.94;;;7.70;91.28
68197;BME280;55019;49.382;11.358;2024-01-30T08:35:10;98030.59;;;8.16;83.27
68197;BME280;55019;49.382;11.358;2024-01-30T08:37:39;98030.38;;;8.86;77.04
68197;BME280;55019;49.382;11.358;2024-01-30T08:40:05;98029.00;;;9.47;66.54
68197;BME280;55019;49.382;11.358;2024-01-30T08:42:31;98023.09;;;10.39;60.54
68197;BME280;55019;49.382;11.358;2024-01-30T08:44:57;98022.38;;;11.08;56.17
68197;BME280;55019;49.382;11.358;2024-01-30T08:47:22;98023.34;;;11.74;52.99
68197;BME280;55019;49.382;11.358;2024-01-30T08:49:48;98024.38;;;12.38;50.07
68197;BME280;55019;49.382;11.358;2024-01-30T08:52:14;98029.25;;;12.60;49.66
68197;BME280;55019;49.382;11.358;2024-01-30T08:54:39;98027.75;;;12.58;49.03
68197;BME280;55019;49.382;11.358;2024-01-30T08:57:05;98025.47;;;11.50;49.82
68197;BME280;55019;49.382;11.358;2024-01-30T08:59:31;98035.31;;;11.56;51.54
68197;BME280;55019;49.382;11.358;2024-01-30T09:01:56;98027.22;;;10.21;55.37
68197;BME280;55019;49.382;11.358;2024-01-30T09:04:24;98033.66;;;9.95;59.47
68197;BME280;55019;49.382;11.358;2024-01-30T09:06:49;98037.88;;;8.89;71.35
68197;BME280;55019;49.382;11.358;2024-01-30T09:09:15;98033.66;;;8.66;75.76
68197;BME280;55019;49.382;11.358;2024-01-30T09:11:41;98038.44;;;8.04;83.41
68197;BME280;55019;49.382;11.358;2024-01-30T09:14:07;98038.41;;;7.93;87.22
68197;BME280;55019;49.382;11.358;2024-01-30T09:16:33;98032.59;;;8.47;86.09
68197;BME280;55019;49.382;11.358;2024-01-30T09:18:58;98040.44;;;9.65;74.21
68197;BME280;55019;49.382;11.358;2024-01-30T09:21:24;98037.91;;;10.57;60.45
68197;BME280;55019;49.382;11.358;2024-01-30T09:23:51;98039.72;;;10.46;58.07
68197;BME280;55019;49.382;11.358;2024-01-30T09:26:17;98033.88;;;9.92;63.98
68197;BME280;55019;49.382;11.358;2024-01-30T09:28:43;98030.00;;;9.98;67.63
68197;BME280;55019;49.382;11.358;2024-01-30T09:31:12;98034.75;;;9.39;71.62
68197;BME280;55019;49.382;11.358;2024-01-30T09:33:38;98039.38;;;9.14;73.71
68197;BME280;55019;49.382;11.358;2024-01-30T09:36:05;98035.38;;;9.74;71.11
68197;BME280;55019;49.382;11.358;2024-01-30T09:38:31;98029.66;;;10.43;64.52
68197;BME280;55019;49.382;11.358;2024-01-30T09:41:00;98031.50;;;11.60;59.99
68197;BME280;55019;49.382;11.358;2024-01-30T09:43:32;98028.78;;;11.71;54.85
68197;BME280;55019;49.382;11.358;2024-01-30T09:45:59;98036.31;;;11.44;54.57
68197;BME280;55019;49.382;11.358;2024-01-30T09:48:26;98030.59;;;9.90;62.62
68197;BME280;55019;49.382;11.358;2024-01-30T09:50:53;98037.75;;;9.66;69.69
68197;BME280;55019;49.382;11.358;2024-01-30T09:53:19;98032.13;;;11.04;60.77
68197;BME280;55019;49.382;11.358;2024-01-30T09:55:45;98032.34;;;12.73;53.13
68197;BME280;55019;49.382;11.358;2024-01-30T09:58:11;98017.19;;;13.14;51.35
68197;BME280;55019;49.382;11.358;2024-01-30T10:00:37;98017.56;;;13.19;49.28
68197;BME280;55019;49.382;11.358;2024-01-30T10:03:03;98018.84;;;12.70;48.49
68197;BME280;55019;49.382;11.358;2024-01-30T10:05:31;98012.97;;;11.74;52.00
68197;BME280;55019;49.382;11.358;2024-01-30T10:07:59;98022.50;;;11.55;53.19
68197;BME280;55019;49.382;11.358;2024-01-30T10:10:25;98025.41;;;10.62;56.87
68197;BME280;55019;49.382;11.358;2024-01-30T10:12:51;98032.44;;;10.51;62.22
68197;BME280;55019;49.382;11.358;2024-01-30T10:15:18;98022.88;;;11.02;61.50
68197;BME280;55019;49.382;11.358;2024-01-30T10:17:45;98021.97;;;11.89;56.29
68197;BME280;55019;49.382;11.358;2024-01-30T10:20:11;98002.13;;;13.45;51.15
68197;BME280;55019;49.382;11.358;2024-01-30T10:22:37;98011.00;;;13.87;47.33
68197;BME280;55019;49.382;11.358;2024-01-30T10:25:03;98009.50;;;14.95;45.68
68197;BME280;55019;49.382;11.358;2024-01-30T10:27:29;98006.56;;;15.81;43.17
68197;BME280;55019;49.382;11.358;2024-01-30T10:29:55;97998.75;;;16.45;42.33
68197;BME280;55019;49.382;11.358;2024-01-30T10:32:21;98007.19;;;15.67;42.42
68197;BME280;55019;49.382;11.358;2024-01-30T10:34:47;97998.38;;;17.56;39.99
68197;BME280;55019;49.382;11.358;2024-01-30T10:37:13;97999.81;;;18.34;37.54
68197;BME280;55019;49.382;11.358;2024-01-30T10:39:45;98001.03;;;17.10;39.55
68197;BME280;55019;49.382;11.358;2024-01-30T10:42:12;98003.78;;;16.70;40.06
68197;BME280;55019;49.382;11.358;2024-01-30T10:45:02;98012.44;;;15.00;43.38
68197;BME280;55019;49.382;11.358;2024-01-30T10:47:34;98009.28;;;14.13;45.29
68197;BME280;55019;49.382;11.358;2024-01-30T10:50:02;98017.53;;;13.02;47.68
68197;BME280;55019;49.382;11.358;2024-01-30T10:52:29;98007.34;;;12.17;49.99
68197;BME280;55019;49.382;11.358;2024-01-30T10:54:56;98009.88;;;12.64;51.32
68197;BME280;55019;49.382;11.358;2024-01-30T10:57:23;98015.19;;;12.63;51.44
68197;BME280;55019;49.382;11.358;2024-01-30T10:59:51;98014.88;;;12.75;52.72
68197;BME280;55019;49.382;11.358;2024-01-30T11:02:18;98012.50;;;13.00;50.32
68197;BME280;55019;49.382;11.358;2024-01-30T11:04:45;98007.28;;;12.91;50.17
68197;BME280;55019;49.382;11.358;2024-01-30T11:07:17;98014.59;;;11.66;55.48
68197;BME280;55019;49.382;11.358;2024-01-30T11:09:53;98000.44;;;11.60;57.20
68197;BME280;55019;49.382;11.358;2024-01-30T11:12:26;98000.56;;;11.87;56.83
68197;BME280;55019;49.382;11.358;2024-01-30T11:20:15;98002.63;;;11.16;65.19
68197;BME280;55019;49.382;11.358;2024-01-30T11:22:42;98002.31;;;11.00;67.16
68197;BME280;55019;49.382;11.358;2024-01-30T11:25:17;97996.19;;;10.62;72.18
68197;BME280;55019;49.382;11.358;2024-01-30T11:27:44;97996.72;;;10.95;70.27
68197;BME280;55019;49.382;11.358;2024-01-30T11:30:11;97993.41;;;10.84;68.87
68197;BME280;55019;49.382;11.358;2024-01-30T11:32:36;97993.78;;;10.49;72.75
68197;BME280;55019;49.382;11.358;2024-01-30T11:35:04;97992.50;;;10.34;76.19
68197;BME280;55019;49.382;11.358;2024-01-30T11:37:32;97993.97;;;10.87;76.50
68197;BME280;55019;49.382;11.358;2024-01-30T11:39:58;97990.03;;;11.51;69.58
68197;BME280;55019;49.382;11.358;2024-01-30T11:42:24;97987.47;;;11.98;62.10
68197;BME280;55019;49.382;11.358;2024-01-30T11:44:52;97990.41;;;11.46;66.41
68197;BME280;55019;49.382;11.358;2024-01-30T11:47:18;97985.38;;;11.36;67.06
68197;BME280;55019;49.382;11.358;2024-01-30T11:49:44;97984.31;;;11.38;69.40
68197;BME280;55019;49.382;11.358;2024-01-30T11:52:10;97976.66;;;11.27;67.96
68197;BME280;55019;49.382;11.358;2024-01-30T11:54:39;97975.56;;;11.30;68.46
68197;BME280;55019;49.382;11.358;2024-01-30T11:57:05;97979.38;;;11.26;69.02
68197;BME280;55019;49.382;11.358;2024-01-30T11:59:31;97972.09;;;10.61;76.39
68197;BME280;55019;49.382;11.358;2024-01-30T12:01:56;97971.03;;;10.64;81.33
68197;BME280;55019;49.382;11.358;2024-01-30T12:04:22;97963.53;;;10.61;81.46
68197;BME280;55019;49.382;11.358;2024-01-30T12:06:51;97964.78;;;10.36;79.68
68197;BME280;55019;49.382;11.358;2024-01-30T12:09:17;97978.91;;;10.12;85.79
68197;BME280;55019;49.382;11.358;2024-01-30T12:11:44;97956.06;;;10.37;87.07
68197;BME280;55019;49.382;11.358;2024-01-30T12:14:11;97957.72;;;10.38;81.55
68197;BME280;55019;49.382;11.358;2024-01-30T12:16:37;97955.28;;;9.96;88.82
68197;BME280;55019;49.382;11.358;2024-01-30T12:19:03;97948.75;;;9.81;93.04
68197;BME280;55019;49.382;11.358;2024-01-30T12:21:29;97944.38;;;10.13;93.10
68197;BME280;55019;49.382;11.358;2024-01-30T12:23:56;97946.69;;;9.75;92.90
68197;BME280;55019;49.382;11.358;2024-01-30T12:26:23;97949.56;;;9.61;93.01
68197;BME280;55019;49.382;11.358;2024-01-30T12:28:49;97944.00;;;9.77;98.93
68197;BME280;55019;49.382;11.358;2024-01-30T12:31:15;97945.91;;;9.84;96.23
68197;BME280;55019;49.382;11.358;2024-01-30T12:33:41;97935.94;;;10.11;91.74
68197;BME280;55019;49.382;11.358;2024-01-30T12:36:07;97937.59;;;10.12;91.23
68197;BME280;55019;49.382;11.358;2024-01-30T12:38:33;97935.94;;;10.11;92.51
68197;BME280;55019;49.382;11.358;2024-01-30T12:41:01;97936.47;;;10.35;90.77
68197;BME280;55019;49.382;11.358;2024-01-30T12:43:27;97937.59;;;10.72;87.01
68197;BME280;55019;49.382;11.358;2024-01-30T12:45:54;97927.47;;;10.99;87.71
68197;BME280;55019;49.382;11.358;2024-01-30T12:48:19;97922.75;;;10.74;83.31
68197;BME280;55019;49.382;11.358;2024-01-30T12:50:45;97924.19;;;10.48;86.24